createdAt,value
2023-04-03T00:01:11.745Z,74.89
2023-04-03T00:03:39.531Z,75.14
2023-04-03T00:06:08.063Z,74.67
2023-04-03T00:08:35.970Z,74.94
2023-04-03T00:11:05.861Z,74.97
2023-04-03T00:13:34.309Z,75.37
2023-04-03T00:16:03.108Z,75.46
2023-04-03T00:18:31.272Z,75.03
2023-04-03T00:20:59.196Z,75.52
2023-04-03T00:23:27.060Z,75.49
2023-04-03T00:25:55.670Z,75.61
2023-04-03T00:28:24.896Z,75.40
2023-04-03T00:30:53.436Z,76.04
2023-04-03T00:33:22.777Z,76.02
2023-04-03T00:35:51.086Z,76.31
2023-04-03T00:38:19.440Z,75.52
2023-04-03T00:40:49.825Z,75.88
2023-04-03T00:43:19.855Z,76.15
2023-04-03T00:45:50.533Z,75.96
2023-04-03T00:48:22.183Z,76.30
2023-04-03T00:50:51.506Z,76.15
2023-04-03T00:53:23.994Z,76.41
2023-04-03T00:55:53.018Z,76.01
2023-04-03T00:58:22.670Z,76.50
2023-04-03T01:00:59.197Z,76.36
2023-04-03T01:03:26.911Z,76.10
2023-04-03T01:05:54.748Z,76.46
2023-04-03T01:08:22.549Z,75.76
2023-04-03T01:10:50.221Z,76.11
2023-04-03T01:13:24.794Z,76.11
2023-04-03T01:15:54.119Z,75.63
2023-04-03T01:18:23.765Z,76.10
2023-04-03T01:21:30.839Z,75.43
2023-04-03T01:24:09.673Z,75.47
2023-04-03T01:26:37.790Z,74.80
2023-04-03T01:29:06.193Z,75.47
2023-04-03T01:31:47.024Z,75.43
2023-04-03T01:34:14.874Z,74.94
2023-04-03T01:36:42.957Z,75.35
2023-04-03T01:39:10.853Z,74.70
2023-04-03T01:41:38.870Z,74.55
2023-04-03T01:44:06.973Z,74.15
2023-04-03T01:46:34.806Z,74.04
2023-04-03T01:49:04.343Z,73.98
2023-04-03T01:51:32.569Z,74.03
2023-04-03T01:54:00.257Z,73.78
2023-04-03T01:56:27.973Z,74.03
2023-04-03T01:58:55.693Z,73.66
2023-04-03T02:01:23.610Z,73.73
2023-04-03T02:03:51.392Z,73.00
2023-04-03T02:06:20.475Z,72.77
2023-04-03T02:08:48.355Z,72.70
2023-04-03T02:11:16.190Z,72.70
2023-04-03T02:13:43.880Z,73.23
2023-04-03T02:16:13.421Z,72.80
2023-04-03T02:18:41.435Z,73.23
2023-04-03T02:21:09.257Z,73.25
2023-04-03T02:23:38.526Z,73.64
2023-04-03T02:26:08.646Z,73.09
2023-04-03T02:28:37.419Z,72.74
2023-04-03T02:31:07.256Z,72.89
2023-04-03T02:33:37.008Z,73.17
2023-04-03T02:36:05.778Z,72.90
2023-04-03T02:38:33.718Z,73.01
2023-04-03T02:41:03.897Z,72.94
2023-04-03T02:43:31.715Z,72.65
2023-04-03T02:45:59.589Z,72.72
2023-04-03T02:48:27.954Z,73.18
2023-04-03T02:50:56.202Z,72.26
2023-04-03T02:53:24.486Z,72.66
2023-04-03T02:55:52.524Z,72.54
2023-04-03T02:58:24.741Z,72.39
2023-04-03T03:00:52.621Z,72.63
2023-04-03T03:03:20.537Z,72.17
2023-04-03T03:05:49.077Z,72.26
2023-04-03T03:08:16.889Z,72.07
2023-04-03T03:10:44.631Z,72.69
2023-04-03T03:13:12.373Z,71.74
2023-04-03T03:15:41.493Z,71.99
2023-04-03T03:18:09.230Z,72.27
2023-04-03T03:20:37.280Z,72.28
2023-04-03T03:23:05.334Z,72.20
2023-04-03T03:25:33.155Z,72.07
2023-04-03T03:28:00.991Z,72.17
2023-04-03T03:30:28.725Z,72.32
2023-04-03T03:32:57.948Z,71.68
2023-04-03T03:35:25.964Z,71.76
2023-04-03T03:37:53.677Z,71.88
2023-04-03T03:40:21.548Z,71.31
2023-04-03T03:42:49.295Z,71.76
2023-04-03T03:45:17.167Z,71.71
2023-04-03T03:47:46.600Z,72.11
2023-04-03T03:50:15.782Z,72.25
2023-04-03T03:52:43.446Z,71.58
2023-04-03T03:55:11.340Z,72.17
2023-04-03T03:57:39.221Z,71.90
2023-04-03T04:00:08.336Z,71.48
2023-04-03T04:02:36.237Z,71.60
2023-04-03T04:05:04.318Z,71.59
2023-04-03T04:07:33.605Z,71.79
2023-04-03T04:10:01.497Z,71.75
2023-04-03T04:12:29.356Z,72.30
2023-04-03T04:14:57.078Z,71.76
2023-04-03T04:17:25.413Z,71.84
2023-04-03T04:19:53.184Z,71.80
2023-04-03T04:22:20.994Z,71.82
2023-04-03T04:24:50.110Z,72.13
2023-04-03T04:27:17.932Z,72.49
2023-04-03T04:29:45.696Z,71.76
2023-04-03T04:32:13.444Z,72.09
2023-04-03T04:34:41.307Z,72.57
2023-04-03T04:37:09.183Z,72.41
2023-04-03T04:39:37.041Z,72.02
2023-04-03T04:42:08.066Z,72.15
2023-04-03T04:44:35.935Z,72.54
2023-04-03T04:47:03.721Z,72.37
2023-04-03T04:49:31.464Z,72.62
2023-04-03T04:51:59.219Z,72.19
2023-04-03T04:54:27.079Z,71.99
2023-04-03T04:56:55.452Z,72.62
2023-04-03T04:59:24.648Z,72.48
2023-04-03T05:01:52.469Z,72.68
2023-04-03T05:04:20.358Z,72.51
2023-04-03T05:06:48.670Z,72.45
2023-04-03T05:09:16.474Z,72.43
2023-04-03T05:11:44.281Z,72.61
2023-04-03T05:14:12.111Z,72.82
2023-04-03T05:16:41.242Z,72.38
2023-04-03T05:19:09.005Z,73.17
2023-04-03T05:21:36.916Z,72.78
2023-04-03T05:24:05.249Z,72.96
2023-04-03T05:26:33.974Z,73.01
2023-04-03T05:29:01.728Z,73.28
2023-04-03T05:31:30.598Z,72.74
2023-04-03T05:34:00.234Z,73.32
2023-04-03T05:36:28.031Z,72.86
2023-04-03T05:38:57.287Z,73.03
2023-04-03T05:41:25.903Z,72.51
2023-04-03T05:43:53.730Z,73.17
2023-04-03T05:46:23.303Z,72.83
2023-04-03T05:48:51.428Z,73.18
2023-04-03T05:51:26.872Z,72.31
2023-04-03T05:54:00.929Z,72.74
2023-04-03T05:56:28.780Z,72.66
2023-04-03T05:59:00.429Z,72.85
2023-04-03T06:01:28.421Z,72.89
2023-04-03T06:03:56.902Z,73.07
2023-04-03T06:06:26.407Z,72.25
2023-04-03T06:08:54.357Z,72.85
2023-04-03T06:11:22.911Z,72.31
2023-04-03T06:13:50.721Z,72.27
2023-04-03T06:16:19.508Z,71.98
2023-04-03T06:18:47.270Z,72.19
2023-04-03T06:21:15.003Z,72.35
2023-04-03T06:23:44.146Z,72.09
2023-04-03T06:26:12.151Z,72.09
2023-04-03T06:28:39.819Z,72.14
2023-04-03T06:31:07.576Z,71.23
2023-04-03T06:33:35.916Z,70.95
2023-04-03T06:36:07.496Z,70.92
2023-04-03T06:38:35.895Z,70.91
2023-04-03T06:41:05.543Z,70.90
2023-04-03T06:43:34.583Z,70.92
2023-04-03T06:46:02.965Z,70.42
2023-04-03T06:48:30.899Z,69.11
2023-04-03T06:50:58.873Z,69.43
2023-04-03T06:53:27.139Z,69.63
2023-04-03T06:55:54.862Z,69.82
2023-04-03T06:58:24.075Z,68.70
2023-04-03T07:00:51.776Z,68.72
2023-04-03T07:03:19.754Z,68.52
2023-04-03T07:05:47.464Z,67.79
2023-04-03T07:08:15.646Z,67.62
2023-04-03T07:10:43.665Z,67.88
2023-04-03T07:13:11.958Z,68.26
2023-04-03T07:15:41.100Z,67.30
2023-04-03T07:18:09.310Z,67.14
2023-04-03T07:20:37.333Z,66.48
2023-04-03T07:23:05.190Z,66.32
2023-04-03T07:25:34.781Z,66.10
2023-04-03T07:28:02.883Z,65.43
2023-04-03T07:30:30.743Z,65.43
2023-04-03T07:32:59.871Z,64.84
2023-04-03T07:35:27.642Z,65.58
2023-04-03T07:37:55.367Z,65.51
2023-04-03T07:40:23.140Z,64.42
2023-04-03T07:42:51.217Z,63.67
2023-04-03T07:45:20.017Z,63.75
2023-04-03T07:47:48.891Z,63.47
2023-04-03T07:50:18.736Z,62.48
2023-04-03T07:52:47.379Z,62.62
2023-04-03T07:55:15.482Z,61.70
2023-04-03T07:57:43.515Z,61.24
2023-04-03T08:00:13.157Z,61.44
2023-04-03T08:02:41.039Z,60.88
2023-04-03T08:05:09.661Z,59.51
2023-04-03T08:07:40.280Z,60.52
2023-04-03T08:10:08.981Z,58.47
2023-04-03T08:12:37.851Z,57.75
2023-04-03T08:15:06.573Z,57.04
2023-04-03T08:17:34.506Z,55.83
2023-04-03T08:20:02.533Z,57.01
2023-04-03T08:22:30.294Z,57.82
2023-04-03T08:24:59.852Z,57.58
2023-04-03T08:27:28.492Z,57.15
2023-04-03T08:29:56.334Z,56.79
2023-04-03T08:32:24.162Z,54.32
2023-04-03T08:34:52.154Z,54.67
2023-04-03T08:37:20.144Z,54.40
2023-04-03T08:39:48.758Z,54.15
2023-04-03T08:42:26.536Z,54.25
2023-04-03T08:45:01.109Z,53.41
2023-04-03T08:47:39.014Z,52.15
2023-04-03T08:50:10.847Z,52.05
2023-04-03T08:52:42.869Z,52.61
2023-04-03T08:55:23.552Z,52.81
2023-04-03T08:57:56.770Z,49.94
2023-04-03T09:00:27.558Z,49.63
2023-04-03T09:02:57.111Z,48.24
2023-04-03T09:05:37.166Z,48.37
2023-04-03T09:08:09.746Z,46.93
2023-04-03T09:10:41.742Z,47.05
2023-04-03T09:13:20.201Z,45.72
2023-04-03T09:15:48.153Z,45.82
2023-04-03T09:18:21.723Z,45.64
2023-04-03T09:20:58.374Z,45.82
2023-04-03T09:23:32.600Z,45.84
2023-04-03T09:26:06.022Z,46.34
2023-04-03T09:28:46.889Z,45.50
2023-04-03T09:31:22.205Z,44.27
2023-04-03T09:33:51.310Z,43.98
2023-04-03T09:36:41.561Z,44.07
2023-04-03T09:39:14.292Z,43.93
2023-04-03T09:41:42.559Z,43.44
2023-04-03T09:44:26.695Z,43.07
2023-04-03T09:46:54.839Z,43.00
2023-04-03T09:49:22.677Z,43.07
2023-04-03T09:51:50.521Z,43.02
2023-04-03T09:54:33.618Z,43.34
2023-04-03T09:57:07.025Z,42.81
2023-04-03T09:59:36.765Z,43.85
2023-04-03T10:02:38.509Z,42.43
2023-04-03T10:05:26.701Z,41.25
2023-04-03T10:10:37.180Z,40.52
2023-04-03T10:13:12.249Z,39.79
2023-04-03T10:15:47.478Z,39.32
2023-04-03T10:18:34.741Z,39.88
2023-04-03T10:21:14.550Z,38.07
2023-04-03T10:23:56.820Z,37.89
2023-04-03T10:26:34.866Z,37.90
2023-04-03T10:29:15.733Z,38.10
2023-04-03T10:31:53.334Z,37.89
2023-04-03T10:34:26.292Z,37.99
2023-04-03T10:37:02.005Z,37.22
2023-04-03T10:39:37.396Z,39.06
2023-04-03T10:42:17.151Z,38.43
2023-04-03T10:45:01.393Z,38.68
2023-04-03T10:47:39.382Z,38.91
2023-04-03T10:50:28.630Z,38.38
2023-04-03T10:53:03.665Z,38.10
2023-04-03T10:55:38.263Z,38.83
2023-04-03T10:58:08.780Z,37.92
2023-04-03T11:00:42.155Z,38.77
2023-04-03T11:03:17.201Z,38.81
2023-04-03T11:05:47.110Z,39.33
2023-04-03T11:08:27.328Z,38.99
2023-04-03T11:10:59.527Z,39.30
2023-04-03T11:13:35.463Z,38.48
2023-04-03T11:16:06.602Z,38.90
2023-04-03T11:18:42.753Z,38.89
2023-04-03T11:21:15.059Z,38.48
2023-04-03T11:23:49.606Z,38.53
2023-04-03T11:26:21.904Z,37.90
2023-04-03T11:28:55.042Z,37.94
2023-04-03T11:31:38.490Z,37.62
2023-04-03T11:34:29.037Z,38.09
2023-04-03T11:37:01.242Z,38.37
2023-04-03T11:39:32.997Z,38.95
2023-04-03T11:42:17.359Z,38.52
2023-04-03T11:44:45.227Z,38.08
2023-04-03T11:47:33.870Z,37.67
2023-04-03T11:50:06.439Z,38.17
2023-04-03T11:53:00.228Z,38.52
2023-04-03T11:55:53.503Z,38.50
2023-04-03T11:58:22.191Z,38.18
2023-04-03T12:01:05.308Z,38.55
2023-04-03T12:04:09.032Z,38.69
2023-04-03T12:07:03.940Z,39.90
2023-04-03T12:09:49.549Z,39.09
2023-04-03T12:12:30.731Z,39.75
2023-04-03T12:15:19.995Z,39.70
2023-04-03T12:17:48.102Z,38.66
2023-04-03T12:20:53.125Z,39.25
2023-04-03T12:23:31.570Z,37.51
2023-04-03T12:26:11.958Z,38.30
2023-04-03T12:28:41.692Z,38.39
2023-04-03T12:31:13.675Z,37.14
2023-04-03T12:34:01.412Z,38.61
2023-04-03T12:36:38.744Z,37.91
2023-04-03T12:39:26.209Z,37.56
2023-04-03T12:42:04.697Z,37.91
2023-04-03T12:44:48.328Z,38.02
2023-04-03T12:47:37.197Z,38.66
2023-04-03T12:50:06.936Z,37.59
2023-04-03T12:52:41.805Z,36.59
2023-04-03T12:55:18.838Z,37.11
2023-04-03T12:57:47.091Z,36.48
2023-04-03T13:00:23.625Z,36.90
2023-04-03T13:02:51.555Z,37.22
2023-04-03T13:05:21.642Z,37.29
2023-04-03T13:07:53.738Z,37.52
2023-04-03T13:10:22.955Z,37.41
2023-04-03T13:12:52.707Z,37.48
2023-04-03T13:15:24.029Z,37.30
2023-04-03T13:17:53.731Z,37.84
2023-04-03T13:20:27.152Z,38.51
2023-04-03T13:22:59.708Z,37.83
2023-04-03T13:25:30.434Z,37.27
2023-04-03T13:28:10.539Z,37.55
2023-04-03T13:30:43.255Z,37.27
2023-04-03T13:33:25.637Z,37.02
2023-04-03T13:35:59.069Z,36.83
2023-04-03T13:38:32.379Z,36.92
2023-04-03T13:41:05.403Z,36.60
2023-04-03T13:43:35.847Z,37.82
2023-04-03T13:46:26.073Z,36.99
2023-04-03T13:48:57.382Z,36.43
2023-04-03T13:51:27.882Z,37.24
2023-04-03T13:53:58.450Z,37.82
2023-04-03T13:56:32.852Z,37.36
2023-04-03T13:59:05.853Z,36.91
2023-04-03T14:01:54.281Z,36.68
2023-04-03T14:04:24.567Z,37.62
2023-04-03T14:06:52.712Z,36.77
2023-04-03T14:09:22.492Z,37.59
2023-04-03T14:11:54.457Z,36.64
2023-04-03T14:14:24.742Z,37.31
2023-04-03T14:16:56.218Z,37.43
2023-04-03T14:19:26.274Z,37.55
2023-04-03T14:21:55.424Z,37.53
2023-04-03T14:24:23.771Z,36.81
2023-04-03T14:26:55.555Z,37.34
2023-04-03T14:29:23.957Z,38.24
2023-04-03T14:32:03.600Z,37.81
2023-04-03T14:34:36.187Z,38.25
2023-04-03T14:37:04.059Z,38.38
2023-04-03T14:39:32.248Z,38.12
2023-04-03T14:42:01.437Z,37.83
2023-04-03T14:44:29.516Z,38.60
2023-04-03T14:46:57.948Z,37.98
2023-04-03T14:49:30.328Z,37.34
2023-04-03T14:51:58.332Z,37.73
2023-04-03T14:54:28.964Z,36.86
2023-04-03T14:56:59.106Z,37.79
2023-04-03T14:59:29.331Z,38.20
2023-04-03T15:01:57.083Z,37.42
2023-04-03T15:04:26.306Z,38.00
2023-04-03T15:06:54.792Z,37.92
2023-04-03T15:09:24.752Z,37.22
2023-04-03T15:11:54.062Z,37.27
2023-04-03T15:14:35.386Z,37.55
2023-04-03T15:17:06.978Z,38.29
2023-04-03T15:19:40.014Z,38.18
2023-04-03T15:22:08.002Z,37.46
2023-04-03T15:24:35.837Z,37.76
2023-04-03T15:27:03.865Z,38.30
2023-04-03T15:29:31.698Z,39.07
2023-04-03T15:31:59.822Z,38.53
2023-04-03T15:34:30.219Z,37.65
2023-04-03T15:36:57.970Z,37.92
2023-04-03T15:39:27.296Z,38.40
2023-04-03T15:41:56.113Z,38.29
2023-04-03T15:44:24.157Z,38.24
2023-04-03T15:46:52.388Z,38.64
2023-04-03T15:49:22.005Z,38.60
2023-04-03T15:51:51.722Z,38.06
2023-04-03T15:54:19.585Z,37.37
2023-04-03T15:56:47.339Z,38.25
2023-04-03T15:59:15.079Z,38.31
2023-04-03T16:01:42.998Z,38.98
2023-04-03T16:04:11.517Z,38.80
2023-04-03T16:06:39.981Z,39.28
2023-04-03T16:09:09.599Z,39.42
2023-04-03T16:11:40.339Z,39.12
2023-04-03T16:14:08.353Z,39.26
2023-04-03T16:16:37.250Z,39.35
2023-04-03T16:19:06.333Z,39.29
2023-04-03T16:21:34.849Z,39.63
2023-04-03T16:24:03.376Z,39.08
2023-04-03T16:26:32.581Z,39.08
2023-04-03T16:29:00.339Z,38.87
2023-04-03T16:31:29.298Z,39.38
2023-04-03T16:33:57.629Z,38.72
2023-04-03T16:36:26.814Z,39.18
2023-04-03T16:38:54.740Z,39.51
2023-04-03T16:41:22.619Z,39.37
2023-04-03T16:43:52.152Z,39.36
2023-04-03T16:46:19.949Z,39.42
2023-04-03T16:48:48.192Z,39.60
2023-04-03T16:51:15.981Z,39.67
2023-04-03T16:53:44.782Z,39.83
2023-04-03T16:56:12.885Z,40.12
2023-04-03T16:58:40.702Z,39.88
2023-04-03T17:01:14.579Z,40.15
2023-04-03T17:03:42.460Z,40.09
2023-04-03T17:06:16.782Z,40.02
2023-04-03T17:08:45.040Z,40.18
2023-04-03T17:11:12.855Z,40.61
2023-04-03T17:13:40.706Z,40.65
2023-04-03T17:16:11.806Z,40.20
2023-04-03T17:18:42.674Z,39.81
2023-04-03T17:21:10.713Z,39.77
2023-04-03T17:23:40.488Z,39.99
2023-04-03T17:26:14.302Z,40.33
2023-04-03T17:28:43.507Z,40.22
2023-04-03T17:31:12.036Z,40.48
2023-04-03T17:33:41.244Z,40.46
2023-04-03T17:36:09.768Z,40.41
2023-04-03T17:38:37.877Z,41.00
2023-04-03T17:41:08.028Z,40.79
2023-04-03T17:43:36.846Z,40.50
2023-04-03T17:46:08.778Z,40.81
2023-04-03T17:48:38.320Z,41.13
2023-04-03T17:51:08.200Z,40.92
2023-04-03T17:53:36.035Z,41.25
2023-04-03T17:56:08.091Z,41.61
2023-04-03T17:58:35.921Z,41.10
2023-04-03T18:01:10.322Z,41.46
2023-04-03T18:03:38.371Z,41.35
2023-04-03T18:06:10.759Z,41.00
2023-04-03T18:08:42.275Z,41.53
2023-04-03T18:11:10.678Z,41.47
2023-04-03T18:13:39.055Z,41.51
2023-04-03T18:16:09.427Z,42.38
2023-04-03T18:18:37.858Z,41.84
2023-04-03T18:21:09.641Z,41.78
2023-04-03T18:23:40.649Z,42.25
2023-04-03T18:26:11.384Z,42.26
2023-04-03T18:28:41.961Z,42.66
2023-04-03T18:31:13.426Z,42.37
2023-04-03T18:33:41.636Z,42.62
2023-04-03T18:36:11.977Z,42.14
2023-04-03T18:38:40.024Z,42.43
2023-04-03T18:41:11.759Z,42.60
2023-04-03T18:43:39.562Z,42.66
2023-04-03T18:46:08.180Z,42.82
2023-04-03T18:48:36.610Z,42.80
2023-04-03T18:51:05.999Z,43.00
2023-04-03T18:53:35.415Z,43.37
2023-04-03T18:56:03.347Z,43.33
2023-04-03T18:58:31.743Z,43.22
2023-04-03T19:00:59.818Z,43.89
2023-04-03T19:03:30.104Z,44.04
2023-04-03T19:06:00.786Z,44.20
2023-04-03T19:08:29.087Z,44.22
2023-04-03T19:10:58.346Z,44.57
2023-04-03T19:13:28.000Z,44.56
2023-04-03T19:15:59.059Z,44.54
2023-04-03T19:18:27.323Z,44.84
2023-04-03T19:21:01.292Z,45.26
2023-04-03T19:23:29.035Z,45.10
2023-04-03T19:26:02.365Z,45.13
2023-04-03T19:28:30.495Z,45.25
2023-04-03T19:30:59.179Z,45.15
2023-04-03T19:33:27.482Z,45.28
2023-04-03T19:35:55.655Z,45.95
2023-04-03T19:38:25.193Z,45.91
2023-04-03T19:40:53.669Z,45.62
2023-04-03T19:43:22.968Z,46.12
2023-04-03T19:45:50.844Z,46.31
2023-04-03T19:48:18.668Z,46.29
2023-04-03T19:50:46.401Z,46.42
2023-04-03T19:53:19.286Z,46.53
2023-04-03T19:55:47.186Z,46.52
2023-04-03T19:58:14.890Z,47.02
2023-04-03T20:00:44.370Z,46.91
2023-04-03T20:03:55.568Z,47.18
2023-04-03T20:06:29.435Z,47.04
2023-04-03T20:08:57.146Z,47.24
2023-04-03T20:11:26.600Z,47.32
2023-04-03T20:13:55.940Z,47.56
2023-04-03T20:16:26.084Z,47.92
2023-04-03T20:18:56.236Z,47.85
2023-04-03T20:21:28.696Z,48.02
2023-04-03T20:23:56.236Z,48.13
2023-04-03T20:26:27.195Z,48.15
2023-04-03T20:28:56.880Z,48.04
2023-04-03T20:31:28.092Z,48.28
2023-04-03T20:33:56.853Z,48.26
2023-04-03T20:36:26.550Z,47.99
2023-04-03T20:38:54.426Z,48.73
2023-04-03T20:41:22.579Z,48.65
2023-04-03T20:44:00.666Z,48.56
2023-04-03T20:46:42.156Z,48.70
2023-04-03T20:49:18.371Z,48.82
2023-04-03T20:51:46.074Z,48.12
2023-04-03T20:54:14.670Z,48.87
2023-04-03T20:56:42.666Z,49.07
2023-04-03T20:59:11.502Z,49.01
2023-04-03T21:01:40.895Z,49.10
2023-04-03T21:04:15.763Z,48.85
2023-04-03T21:07:20.737Z,48.93
2023-04-03T21:10:28.265Z,49.16
2023-04-03T21:13:34.270Z,48.91
2023-04-03T21:16:02.247Z,48.83
2023-04-03T21:18:58.285Z,49.61
2023-04-03T21:21:27.470Z,49.39
2023-04-03T21:23:56.455Z,49.24
2023-04-03T21:26:27.621Z,49.20
2023-04-03T21:28:55.888Z,49.56
2023-04-03T21:31:24.456Z,50.00
2023-04-03T21:33:53.698Z,49.53
2023-04-03T21:36:21.715Z,49.94
2023-04-03T21:38:50.071Z,49.44
2023-04-03T21:41:17.847Z,49.55
2023-04-03T21:43:47.035Z,49.87
2023-04-03T21:46:14.845Z,50.16
2023-04-03T21:48:42.617Z,49.92
2023-04-03T21:51:12.058Z,50.21
2023-04-03T21:53:40.771Z,50.40
2023-04-03T21:56:08.957Z,50.95
2023-04-03T21:58:36.846Z,50.84
2023-04-03T22:01:11.648Z,51.36
2023-04-03T22:03:40.935Z,51.54
2023-04-03T22:06:09.296Z,51.19
2023-04-03T22:08:38.791Z,51.66
2023-04-03T22:11:08.173Z,51.75
2023-04-03T22:13:36.406Z,51.38
2023-04-03T22:16:04.605Z,51.46
2023-04-03T22:18:32.635Z,51.40
2023-04-03T22:21:00.516Z,51.63
2023-04-03T22:23:28.298Z,51.95
2023-04-03T22:26:01.668Z,52.37
2023-04-03T22:28:29.939Z,52.67
2023-04-03T22:30:57.728Z,53.16
2023-04-03T22:33:25.551Z,52.53
2023-04-03T22:35:53.824Z,53.12
2023-04-03T22:38:22.480Z,52.86
2023-04-03T22:40:58.664Z,52.74
2023-04-03T22:43:29.605Z,52.92
2023-04-03T22:45:57.885Z,53.04
2023-04-03T22:48:25.925Z,52.99
2023-04-03T22:50:53.921Z,53.48
2023-04-03T22:53:21.773Z,53.62
2023-04-03T22:55:55.688Z,53.53
2023-04-03T22:58:26.001Z,54.19
2023-04-03T23:00:56.678Z,54.27
2023-04-03T23:03:25.724Z,54.92
2023-04-03T23:05:55.993Z,55.22
2023-04-03T23:08:23.936Z,55.50
2023-04-03T23:10:55.151Z,55.21
2023-04-03T23:13:22.901Z,55.47
2023-04-03T23:15:55.190Z,55.81
2023-04-03T23:18:22.960Z,56.29
2023-04-03T23:20:51.897Z,56.89
2023-04-03T23:23:19.892Z,56.63
2023-04-03T23:25:52.656Z,57.09
2023-04-03T23:28:20.860Z,57.50
2023-04-03T23:30:48.851Z,57.40
2023-04-03T23:33:18.036Z,57.03
2023-04-03T23:35:48.600Z,58.08
2023-04-03T23:38:17.557Z,57.57
2023-04-03T23:40:47.063Z,57.75
2023-04-03T23:43:14.922Z,57.31
2023-04-03T23:45:42.796Z,57.34
2023-04-03T23:48:10.692Z,57.77
2023-04-03T23:50:40.130Z,57.66
2023-04-03T23:53:08.503Z,57.94
2023-04-03T23:55:36.839Z,57.61
2023-04-03T23:58:04.685Z,57.46
